createdAt,value
2019-05-11T00:00:12.530Z,11.51
2019-05-11T00:02:41.865Z,11.57
2019-05-11T00:05:11.368Z,11.56
2019-05-11T00:07:40.722Z,11.54
2019-05-11T00:10:10.287Z,11.46
2019-05-11T00:12:39.576Z,11.54
2019-05-11T00:15:09.345Z,11.46
2019-05-11T00:17:38.764Z,11.51
2019-05-11T00:20:08.587Z,11.61
2019-05-11T00:22:37.926Z,11.56
2019-05-11T00:25:08.609Z,11.51
2019-05-11T00:27:37.941Z,11.56
2019-05-11T00:30:08.835Z,11.38
2019-05-11T00:32:38.161Z,11.50
2019-05-11T00:35:07.873Z,11.42
2019-05-11T00:37:37.196Z,11.40
2019-05-11T00:40:14.533Z,11.49
2019-05-11T00:42:38.615Z,11.58
2019-05-11T00:45:08.487Z,11.58
2019-05-11T00:47:37.834Z,11.43
2019-05-11T00:50:10.375Z,11.44
2019-05-11T00:52:39.711Z,11.43
2019-05-11T00:55:09.197Z,11.52
2019-05-11T00:57:38.521Z,11.48
2019-05-11T01:00:09.808Z,11.53
2019-05-11T01:02:39.147Z,11.46
2019-05-11T01:05:08.755Z,11.45
2019-05-11T01:07:38.080Z,11.53
2019-05-11T01:10:21.864Z,11.50
2019-05-11T01:12:39.022Z,11.50
2019-05-11T01:15:09.618Z,11.46
2019-05-11T01:17:38.985Z,11.51
2019-05-11T01:20:08.499Z,11.40
2019-05-11T01:22:37.853Z,11.49
2019-05-11T01:25:07.449Z,11.32
2019-05-11T01:27:36.792Z,11.18
2019-05-11T01:30:07.711Z,11.28
2019-05-11T01:32:37.146Z,11.32
2019-05-11T01:35:07.617Z,11.34
2019-05-11T01:37:36.949Z,11.30
2019-05-11T01:40:07.840Z,11.31
2019-05-11T01:42:37.183Z,11.24
2019-05-11T01:45:06.986Z,11.47
2019-05-11T01:47:36.333Z,11.50
2019-05-11T01:50:05.736Z,11.38
2019-05-11T01:52:35.092Z,11.51
2019-05-11T01:55:04.763Z,11.62
2019-05-11T01:57:34.112Z,11.47
2019-05-11T02:00:04.892Z,11.37
2019-05-11T02:02:34.241Z,11.46
2019-05-11T02:05:22.210Z,11.62
2019-05-11T02:07:51.558Z,11.58
2019-05-11T02:10:20.909Z,11.70
2019-05-11T02:12:50.329Z,11.70
2019-05-11T02:15:19.679Z,11.62
2019-05-11T02:17:49.041Z,11.53
2019-05-11T02:20:18.760Z,11.57
2019-05-11T02:22:48.316Z,11.56
2019-05-11T02:25:17.671Z,11.50
2019-05-11T02:27:47.073Z,11.49
2019-05-11T02:30:18.155Z,11.62
2019-05-11T02:32:47.477Z,11.64
2019-05-11T02:35:16.870Z,11.62
2019-05-11T02:37:46.232Z,11.71
2019-05-11T02:40:16.589Z,11.76
2019-05-11T02:42:46.188Z,11.74
2019-05-11T02:45:17.296Z,11.76
2019-05-11T02:47:46.643Z,11.78
2019-05-11T02:50:15.979Z,11.67
2019-05-11T02:52:46.167Z,11.61
2019-05-11T02:55:15.569Z,11.66
2019-05-11T02:57:44.904Z,11.64
2019-05-11T03:00:15.758Z,11.76
2019-05-11T03:02:45.107Z,11.76
2019-05-11T03:05:15.659Z,11.76
2019-05-11T03:07:45.001Z,11.78
2019-05-11T03:10:14.404Z,11.80
2019-05-11T03:12:43.739Z,11.79
2019-05-11T03:15:13.191Z,11.83
2019-05-11T03:17:42.531Z,11.81
2019-05-11T03:20:11.994Z,11.84
2019-05-11T03:22:41.333Z,11.81
2019-05-11T03:25:10.723Z,11.80
2019-05-11T03:27:40.058Z,11.77
2019-05-11T03:30:09.947Z,11.79
2019-05-11T03:32:39.271Z,11.79
2019-05-11T03:35:08.758Z,11.89
2019-05-11T03:37:38.087Z,11.93
2019-05-11T03:40:08.046Z,11.99
2019-05-11T03:42:37.393Z,12.01
2019-05-11T03:45:07.570Z,12.01
2019-05-11T03:47:36.897Z,12.09
2019-05-11T03:50:07.681Z,12.04
2019-05-11T03:52:37.004Z,12.12
2019-05-11T03:55:06.899Z,12.16
2019-05-11T03:57:36.188Z,12.16
2019-05-11T04:00:07.445Z,12.20
2019-05-11T04:02:36.921Z,12.27
2019-05-11T04:05:07.092Z,12.25
2019-05-11T04:07:36.420Z,12.27
2019-05-11T04:10:07.101Z,12.17
2019-05-11T04:12:36.430Z,12.15
2019-05-11T04:15:07.499Z,12.13
2019-05-11T04:17:36.910Z,12.20
2019-05-11T04:20:06.711Z,12.18
2019-05-11T04:22:36.059Z,12.22
2019-05-11T04:25:06.222Z,12.24
2019-05-11T04:27:35.615Z,12.23
2019-05-11T04:30:06.905Z,12.26
2019-05-11T04:32:36.239Z,12.34
2019-05-11T04:35:06.612Z,12.34
2019-05-11T04:37:35.955Z,12.48
2019-05-11T04:40:06.817Z,12.51
2019-05-11T04:42:53.234Z,12.51
2019-05-11T04:45:09.160Z,12.52
2019-05-11T04:47:38.496Z,12.60
2019-05-11T04:50:08.505Z,12.69
2019-05-11T04:52:37.807Z,12.75
2019-05-11T04:55:07.207Z,12.80
2019-05-11T04:57:36.461Z,12.70
2019-05-11T05:00:08.381Z,12.83
2019-05-11T05:02:37.709Z,12.80
2019-05-11T05:05:10.140Z,12.77
2019-05-11T05:07:48.158Z,12.72
2019-05-11T05:10:14.025Z,12.69
2019-05-11T05:12:50.759Z,12.73
2019-05-11T05:15:12.870Z,12.95
2019-05-11T05:17:42.302Z,12.95
2019-05-11T05:20:12.784Z,12.93
2019-05-11T05:22:42.109Z,12.93
2019-05-11T05:25:11.507Z,13.13
2019-05-11T05:27:40.862Z,13.28
2019-05-11T05:30:10.547Z,13.30
2019-05-11T05:32:39.856Z,13.40
2019-05-11T05:35:09.338Z,13.40
2019-05-11T05:37:38.660Z,13.28
2019-05-11T05:40:08.626Z,13.37
2019-05-11T05:42:37.971Z,13.19
2019-05-11T05:45:07.469Z,13.18
2019-05-11T05:47:36.801Z,13.34
2019-05-11T05:50:07.437Z,13.23
2019-05-11T05:52:37.134Z,13.23
2019-05-11T05:55:06.808Z,13.30
2019-05-11T05:57:36.148Z,13.29
2019-05-11T06:00:06.219Z,13.35
2019-05-11T06:02:35.556Z,13.19
2019-05-11T06:05:07.453Z,13.23
2019-05-11T06:07:36.779Z,13.17
2019-05-11T06:10:07.390Z,13.15
2019-05-11T06:12:36.731Z,13.05
2019-05-11T06:15:09.225Z,13.05
2019-05-11T06:17:38.549Z,13.06
2019-05-11T06:20:08.788Z,12.96
2019-05-11T06:22:38.530Z,13.02
2019-05-11T06:25:07.925Z,13.02
2019-05-11T06:27:37.266Z,12.96
2019-05-11T06:30:07.440Z,12.91
2019-05-11T06:32:36.841Z,12.95
2019-05-11T06:35:08.527Z,12.97
2019-05-11T06:37:37.859Z,13.28
2019-05-11T06:40:08.139Z,13.29
2019-05-11T06:42:37.459Z,13.29
2019-05-11T06:45:07.229Z,13.75
2019-05-11T06:47:36.553Z,13.87
2019-05-11T06:50:06.434Z,13.87
2019-05-11T06:52:35.770Z,13.96
2019-05-11T06:55:05.542Z,14.00
2019-05-11T06:57:34.885Z,14.00
2019-05-11T07:00:05.351Z,13.79
2019-05-11T07:02:34.707Z,13.80
2019-05-11T07:05:05.505Z,13.97
2019-05-11T07:07:46.989Z,14.17
2019-05-11T07:10:06.600Z,14.17
2019-05-11T07:12:36.012Z,14.12
2019-05-11T07:15:07.231Z,14.39
2019-05-11T07:17:36.567Z,14.85
2019-05-11T07:20:07.454Z,14.85
2019-05-11T07:22:36.786Z,14.91
2019-05-11T07:25:07.173Z,14.86
2019-05-11T07:27:36.512Z,14.57
2019-05-11T07:30:07.255Z,14.57
2019-05-11T07:32:38.081Z,14.59
2019-05-11T07:35:08.656Z,14.46
2019-05-11T07:37:38.722Z,14.54
2019-05-11T07:40:08.590Z,15.17
2019-05-11T07:42:38.269Z,15.87
2019-05-11T07:45:09.026Z,15.64
2019-05-11T07:47:38.574Z,15.64
2019-05-11T07:50:08.758Z,16.21
2019-05-11T07:52:38.151Z,16.34
2019-05-11T07:55:08.853Z,16.67
2019-05-11T07:57:38.985Z,16.85
2019-05-11T08:00:09.130Z,16.56
2019-05-11T08:02:38.936Z,16.59
2019-05-11T08:05:08.985Z,16.28
2019-05-11T08:07:38.330Z,16.45
2019-05-11T08:10:08.276Z,16.41
2019-05-11T08:12:39.231Z,16.36
2019-05-11T08:15:13.286Z,16.44
2019-05-11T08:17:40.298Z,16.47
2019-05-11T08:20:09.967Z,16.16
2019-05-11T08:22:39.317Z,16.01
2019-05-11T08:25:09.499Z,16.53
2019-05-11T08:27:38.830Z,16.28
2019-05-11T08:30:10.974Z,16.26
2019-05-11T08:32:40.310Z,16.33
2019-05-11T08:35:10.314Z,16.12
2019-05-11T08:37:39.623Z,16.07
2019-05-11T08:40:10.134Z,15.84
2019-05-11T08:42:39.456Z,16.15
2019-05-11T08:45:18.903Z,16.33
2019-05-11T08:47:40.358Z,16.41
2019-05-11T08:50:09.817Z,16.79
2019-05-11T08:52:39.150Z,17.01
2019-05-11T08:55:09.304Z,16.85
2019-05-11T08:57:38.934Z,16.52
2019-05-11T09:00:11.421Z,16.66
2019-05-11T09:02:40.920Z,16.53
2019-05-11T09:05:10.510Z,16.60
2019-05-11T09:07:39.829Z,16.58
2019-05-11T09:10:09.797Z,16.63
2019-05-11T09:12:39.126Z,16.53
2019-05-11T09:15:08.977Z,16.47
2019-05-11T09:17:38.418Z,15.80
2019-05-11T09:20:08.874Z,15.80
2019-05-11T09:22:38.343Z,15.71
2019-05-11T09:25:08.809Z,15.62
2019-05-11T09:27:38.469Z,15.84
2019-05-11T09:30:08.619Z,16.16
2019-05-11T09:32:38.582Z,16.52
2019-05-11T09:35:08.491Z,16.82
2019-05-11T09:37:38.249Z,16.96
2019-05-11T09:40:08.047Z,16.74
2019-05-11T09:42:38.858Z,16.87
2019-05-11T09:45:08.446Z,17.05
2019-05-11T09:47:38.676Z,17.33
2019-05-11T09:50:08.747Z,17.25
2019-05-11T09:52:38.600Z,17.48
2019-05-11T09:55:08.966Z,17.70
2019-05-11T09:57:38.433Z,17.57
2019-05-11T10:00:09.233Z,17.85
2019-05-11T10:02:38.838Z,17.83
2019-05-11T10:05:08.588Z,17.90
2019-05-11T10:07:38.250Z,17.96
2019-05-11T10:10:09.303Z,18.48
2019-05-11T10:12:38.815Z,18.85
2019-05-11T10:15:08.919Z,18.73
2019-05-11T10:17:38.562Z,18.93
2019-05-11T10:20:09.453Z,18.73
2019-05-11T10:22:38.899Z,18.60
2019-05-11T10:25:09.159Z,18.12
2019-05-11T10:27:38.769Z,18.01
2019-05-11T10:30:09.921Z,17.91
2019-05-11T10:32:39.929Z,17.84
2019-05-11T10:35:10.959Z,17.84
2019-05-11T10:37:40.293Z,17.87
2019-05-11T10:40:09.948Z,18.01
2019-05-11T10:42:39.272Z,18.01
2019-05-11T10:45:09.411Z,17.96
2019-05-11T10:47:38.937Z,18.31
2019-05-11T10:50:09.150Z,18.55
2019-05-11T10:52:38.473Z,18.59
2019-05-11T10:55:08.817Z,18.42
2019-05-11T10:57:38.849Z,18.12
2019-05-11T11:00:09.241Z,18.24
2019-05-11T11:02:38.655Z,18.05
2019-05-11T11:05:08.390Z,18.14
2019-05-11T11:07:38.571Z,18.33
2019-05-11T11:10:09.042Z,18.31
2019-05-11T11:12:38.768Z,18.33
2019-05-11T11:15:09.583Z,17.96
2019-05-11T11:17:39.233Z,17.86
2019-05-11T11:20:08.919Z,17.70
2019-05-11T11:22:43.476Z,17.75
2019-05-11T11:25:09.460Z,17.55
2019-05-11T11:27:38.793Z,17.73
2019-05-11T11:30:09.348Z,17.81
2019-05-11T11:32:38.935Z,18.04
2019-05-11T11:35:08.795Z,17.94
2019-05-11T11:37:38.855Z,18.31
2019-05-11T11:40:09.022Z,18.35
2019-05-11T11:42:38.346Z,18.44
2019-05-11T11:45:08.710Z,18.77
2019-05-11T11:47:38.503Z,19.12
2019-05-11T11:50:09.367Z,19.17
2019-05-11T11:52:38.674Z,19.00
2019-05-11T11:55:09.449Z,18.52
2019-05-11T11:57:38.771Z,18.29
2019-05-11T12:00:09.284Z,18.00
2019-05-11T12:02:38.942Z,18.00
2019-05-11T12:05:09.019Z,18.02
2019-05-11T12:07:38.787Z,18.13
2019-05-11T12:10:10.424Z,18.05
2019-05-11T12:12:39.746Z,17.85
2019-05-11T12:15:09.412Z,18.02
2019-05-11T12:17:38.744Z,17.82
2019-05-11T12:20:09.155Z,17.95
2019-05-11T12:22:38.853Z,17.92
2019-05-11T12:25:08.798Z,18.11
2019-05-11T12:27:38.567Z,18.28
2019-05-11T12:30:09.075Z,18.54
2019-05-11T12:32:40.163Z,18.84
2019-05-11T12:35:09.924Z,18.62
2019-05-11T12:37:39.504Z,18.87
2019-05-11T12:40:10.462Z,18.68
2019-05-11T12:42:39.797Z,18.86
2019-05-11T12:45:09.798Z,19.45
2019-05-11T12:47:39.119Z,19.41
2019-05-11T12:50:09.407Z,19.76
2019-05-11T12:52:38.711Z,19.20
2019-05-11T12:55:08.908Z,18.79
2019-05-11T12:57:38.755Z,18.92
2019-05-11T13:00:08.796Z,19.04
2019-05-11T13:02:38.951Z,19.33
2019-05-11T13:05:08.893Z,19.29
2019-05-11T13:07:39.175Z,18.96
2019-05-11T13:10:09.345Z,19.23
2019-05-11T13:12:38.791Z,19.43
2019-05-11T13:15:08.598Z,19.34
2019-05-11T13:17:40.907Z,19.03
2019-05-11T13:20:13.027Z,18.74
2019-05-11T13:22:41.938Z,18.53
2019-05-11T13:25:11.868Z,18.17
2019-05-11T13:27:41.653Z,17.89
2019-05-11T13:30:11.522Z,17.80
2019-05-11T13:32:40.862Z,17.59
2019-05-11T13:35:10.181Z,17.37
2019-05-11T13:37:39.509Z,16.73
2019-05-11T13:40:09.077Z,14.96
2019-05-11T13:42:38.755Z,13.10
2019-05-11T13:45:09.986Z,12.84
2019-05-11T13:47:51.646Z,12.84
2019-05-11T13:50:10.518Z,12.56
2019-05-11T13:52:39.865Z,12.48
2019-05-11T13:55:09.326Z,12.32
2019-05-11T13:57:39.736Z,12.68
2019-05-11T14:00:09.890Z,12.86
2019-05-11T14:02:39.230Z,12.88
2019-05-11T14:05:09.031Z,13.10
2019-05-11T14:07:38.403Z,13.50
2019-05-11T14:10:08.334Z,14.31
2019-05-11T14:12:38.491Z,14.64
2019-05-11T14:15:08.988Z,14.60
2019-05-11T14:17:38.327Z,15.13
2019-05-11T14:20:09.466Z,15.13
2019-05-11T14:22:39.458Z,15.48
2019-05-11T14:25:09.399Z,15.52
2019-05-11T14:27:39.277Z,15.52
2019-05-11T14:30:09.180Z,14.78
2019-05-11T14:32:39.083Z,14.55
2019-05-11T14:35:12.076Z,14.55
2019-05-11T14:37:39.698Z,13.17
2019-05-11T14:40:09.764Z,13.17
2019-05-11T14:42:41.419Z,12.62
2019-05-11T14:45:11.167Z,11.81
2019-05-11T14:47:42.597Z,11.61
2019-05-11T14:50:11.944Z,11.57
2019-05-11T14:52:41.283Z,11.27
2019-05-11T14:55:10.746Z,11.18
2019-05-11T14:57:40.079Z,11.51
2019-05-11T15:00:09.952Z,11.63
2019-05-11T15:02:50.094Z,11.99
2019-05-11T15:05:20.603Z,12.09
2019-05-11T15:07:52.444Z,12.25
2019-05-11T15:10:22.359Z,12.13
2019-05-11T15:12:51.685Z,12.23
2019-05-11T15:15:21.457Z,12.34
2019-05-11T15:17:50.792Z,12.41
2019-05-11T15:20:20.327Z,12.26
2019-05-11T15:22:49.625Z,12.13
2019-05-11T15:25:19.729Z,12.17
2019-05-11T15:27:49.364Z,12.23
2019-05-11T15:30:19.299Z,12.27
2019-05-11T15:32:48.874Z,12.22
2019-05-11T15:35:18.952Z,12.37
2019-05-11T15:37:48.596Z,12.36
2019-05-11T15:40:22.521Z,12.33
2019-05-11T15:42:51.855Z,12.23
2019-05-11T15:45:21.350Z,12.23
2019-05-11T15:47:50.676Z,12.28
2019-05-11T15:50:20.761Z,12.25
2019-05-11T15:52:50.163Z,12.26
2019-05-11T15:55:20.827Z,12.30
2019-05-11T15:57:50.164Z,12.66
2019-05-11T16:00:20.627Z,12.61
2019-05-11T16:02:50.016Z,12.69
2019-05-11T16:05:19.615Z,13.10
2019-05-11T16:07:49.465Z,12.85
2019-05-11T16:10:19.257Z,13.18
2019-05-11T16:12:49.093Z,12.82
2019-05-11T16:15:19.558Z,12.72
2019-05-11T16:17:49.730Z,12.49
2019-05-11T16:20:19.504Z,12.40
2019-05-11T16:22:48.992Z,12.47
2019-05-11T16:25:19.606Z,12.53
2019-05-11T16:27:49.485Z,12.56
2019-05-11T16:30:21.773Z,12.33
2019-05-11T16:32:50.443Z,11.88
2019-05-11T16:35:20.030Z,11.56
2019-05-11T16:37:49.349Z,11.34
2019-05-11T16:40:20.812Z,11.30
2019-05-11T16:42:50.199Z,11.05
2019-05-11T16:45:20.689Z,10.90
2019-05-11T16:47:50.703Z,10.79
2019-05-11T16:50:20.109Z,10.89
2019-05-11T16:52:49.480Z,10.83
2019-05-11T16:55:18.865Z,10.93
2019-05-11T16:57:48.744Z,10.91
2019-05-11T17:00:18.474Z,11.01
2019-05-11T17:02:49.042Z,10.98
2019-05-11T17:05:26.400Z,11.01
2019-05-11T17:07:49.844Z,10.95
2019-05-11T17:10:19.428Z,11.01
2019-05-11T17:12:49.186Z,10.97
2019-05-11T17:15:19.088Z,10.96
2019-05-11T17:17:49.361Z,11.03
2019-05-11T17:20:19.419Z,11.08
2019-05-11T17:22:49.597Z,11.17
2019-05-11T17:25:19.622Z,11.21
2019-05-11T17:27:49.477Z,11.26
2019-05-11T17:30:20.088Z,11.08
2019-05-11T17:32:50.020Z,11.19
2019-05-11T17:35:19.817Z,11.15
2019-05-11T17:37:49.155Z,11.07
2019-05-11T17:40:23.157Z,11.08
2019-05-11T17:42:53.512Z,10.94
2019-05-11T17:45:21.500Z,11.06
2019-05-11T17:47:50.837Z,10.96
2019-05-11T17:50:20.173Z,11.05
2019-05-11T17:52:49.506Z,10.96
2019-05-11T17:55:18.893Z,10.82
2019-05-11T17:57:49.593Z,10.83
2019-05-11T18:00:20.329Z,10.58
2019-05-11T18:02:49.840Z,10.51
2019-05-11T18:05:19.164Z,10.60
2019-05-11T18:07:48.501Z,10.45
2019-05-11T18:10:18.679Z,10.38
2019-05-11T18:12:48.814Z,10.39
2019-05-11T18:15:18.931Z,10.47
2019-05-11T18:17:48.970Z,10.37
2019-05-11T18:20:21.951Z,10.32
2019-05-11T18:22:49.736Z,10.21
2019-05-11T18:25:19.340Z,10.16
2019-05-11T18:27:48.664Z,10.21
2019-05-11T18:30:18.447Z,10.16
2019-05-11T18:32:48.969Z,10.15
2019-05-11T18:35:19.557Z,10.10
2019-05-11T18:37:49.444Z,10.10
2019-05-11T18:40:19.243Z,10.11
2019-05-11T18:42:49.178Z,10.20
2019-05-11T18:45:19.101Z,10.07
2019-05-11T18:47:49.245Z,10.09
2019-05-11T18:50:29.823Z,10.08
2019-05-11T18:52:50.294Z,10.02
2019-05-11T18:55:19.629Z,10.06
2019-05-11T18:57:49.470Z,10.10
2019-05-11T19:00:19.547Z,10.09
2019-05-11T19:02:49.703Z,10.14
2019-05-11T19:05:19.348Z,10.09
2019-05-11T19:07:48.664Z,10.02
2019-05-11T19:10:18.423Z,10.01
2019-05-11T19:12:48.822Z,9.93
2019-05-11T19:15:19.018Z,9.82
2019-05-11T19:17:49.239Z,9.75
2019-05-11T19:20:19.320Z,9.82
2019-05-11T19:22:48.663Z,9.83
2019-05-11T19:25:18.437Z,9.63
2019-05-11T19:27:50.236Z,9.71
2019-05-11T19:30:19.281Z,9.64
2019-05-11T19:32:49.376Z,9.52
2019-05-11T19:35:24.421Z,9.55
2019-05-11T19:37:53.779Z,9.60
2019-05-11T19:40:23.118Z,9.57
2019-05-11T19:42:58.741Z,9.56
2019-05-11T19:45:29.436Z,9.55
2019-05-11T19:47:58.356Z,9.52
2019-05-11T19:50:29.324Z,9.53
2019-05-11T19:52:58.670Z,9.65
2019-05-11T19:55:28.705Z,9.64
2019-05-11T19:57:58.481Z,9.51
2019-05-11T20:00:27.819Z,9.41
2019-05-11T20:02:58.568Z,9.49
2019-05-11T20:05:28.828Z,9.51
2019-05-11T20:07:58.722Z,9.52
2019-05-11T20:10:28.317Z,9.49
2019-05-11T20:12:58.797Z,9.46
2019-05-11T20:15:28.409Z,9.46
2019-05-11T20:17:58.669Z,9.44
2019-05-11T20:20:28.566Z,9.34
2019-05-11T20:22:58.542Z,9.43
2019-05-11T20:25:29.062Z,9.44
2019-05-11T20:27:58.742Z,9.37
2019-05-11T20:30:28.101Z,9.45
2019-05-11T20:32:57.703Z,9.38
2019-05-11T20:35:27.933Z,9.33
2019-05-11T20:37:58.102Z,9.26
2019-05-11T20:40:28.520Z,9.24
2019-05-11T20:42:58.810Z,9.28
2019-05-11T20:45:28.717Z,9.26
2019-05-11T20:47:58.215Z,9.19
2019-05-11T20:50:27.542Z,9.16
2019-05-11T20:52:58.210Z,9.13
2019-05-11T20:55:28.451Z,9.14
2019-05-11T20:57:58.523Z,8.99
2019-05-11T21:00:28.190Z,9.02
2019-05-11T21:02:58.866Z,9.02
2019-05-11T21:05:28.332Z,9.00
2019-05-11T21:07:57.954Z,8.79
2019-05-11T21:10:34.108Z,8.89
2019-05-11T21:13:14.763Z,8.96
2019-05-11T21:15:44.110Z,8.97
2019-05-11T21:18:13.441Z,8.91
2019-05-11T21:20:43.011Z,8.95
2019-05-11T21:23:12.352Z,8.83
2019-05-11T21:25:41.687Z,8.86
2019-05-11T21:28:11.035Z,8.95
2019-05-11T21:30:40.365Z,8.85
2019-05-11T21:33:09.732Z,8.86
2019-05-11T21:35:39.077Z,8.87
2019-05-11T21:38:08.619Z,8.78
2019-05-11T21:40:38.242Z,8.88
2019-05-11T21:43:08.725Z,8.94
2019-05-11T21:45:44.235Z,8.90
2019-05-11T21:48:13.568Z,8.77
2019-05-11T21:50:42.913Z,8.81
2019-05-11T21:53:12.268Z,8.84
2019-05-11T21:55:41.589Z,8.67
2019-05-11T21:58:10.941Z,8.79
2019-05-11T22:00:40.776Z,8.81
2019-05-11T22:03:10.513Z,8.72
2019-05-11T22:06:00.241Z,8.64
2019-05-11T22:08:29.583Z,8.67
2019-05-11T22:11:00.034Z,8.71
2019-05-11T22:13:37.767Z,8.71
2019-05-11T22:16:12.053Z,8.64
2019-05-11T22:18:41.394Z,8.65
2019-05-11T22:21:29.819Z,8.51
2019-05-11T22:23:59.168Z,8.59
2019-05-11T22:26:28.778Z,8.66
2019-05-11T22:29:07.432Z,8.61
2019-05-11T22:31:42.151Z,8.49
2019-05-11T22:37:19.500Z,8.57
2019-05-11T22:39:49.468Z,8.43
2019-05-11T22:42:29.534Z,8.56
2019-05-11T22:44:58.864Z,8.44
2019-05-11T22:47:28.517Z,8.49
2019-05-11T22:50:50.641Z,8.52
2019-05-11T22:53:42.803Z,8.47
2019-05-11T22:56:01.917Z,8.57
2019-05-11T22:58:31.252Z,8.50
2019-05-11T23:01:00.612Z,8.56
2019-05-11T23:03:29.952Z,8.53
2019-05-11T23:05:59.521Z,8.57
2019-05-11T23:08:29.106Z,8.60
2019-05-11T23:10:58.437Z,8.57
2019-05-11T23:13:28.023Z,8.63
2019-05-11T23:15:58.402Z,8.64
2019-05-11T23:18:34.181Z,8.59
2019-05-11T23:21:03.529Z,8.43
2019-05-11T23:23:32.858Z,8.54
2019-05-11T23:26:02.198Z,8.52
2019-05-11T23:28:31.536Z,8.58
2019-05-11T23:31:00.875Z,8.48
2019-05-11T23:33:30.227Z,8.40
2019-05-11T23:35:59.563Z,8.51
2019-05-11T23:38:28.889Z,8.51
2019-05-11T23:40:58.942Z,8.43
2019-05-11T23:43:48.471Z,8.38
2019-05-11T23:46:17.817Z,8.44
2019-05-11T23:48:48.693Z,8.51
2019-05-11T23:51:38.728Z,8.48
2019-05-11T23:54:14.314Z,8.28
2019-05-11T23:56:43.674Z,8.47
2019-05-11T23:59:12.999Z,8.41
